Love Boat — OT3861 — position and weather

sailwx.info

Track history (hours):
 
Tides and Currents Weather Stations Pressure Air Temp Water Temp Dewpoint Dewpoint Depression Visibility Wind Speed Wind Dir Waves Ship Positions

Love Boat

Last reported at 2017-Mar-22 07:33 UTC. Time now 2017-Mar-24 12:08 UTC.
Position N 50°41' E 007°11'.

Length 110 m; draft 2 m.

Type: Ship. MMSI: 205386190.

Date/timePositionNaut miles runAvg speedWind from/ knotsBaromVisibWave heightAir tempDewpointWater temp
2017-Mar-22 07:33N 50°41' E 007°11'5 4.7
2017-Mar-22 06:33N 50°45' E 007°06'5 4.6
2017-Mar-22 05:32N 50°48' E 007°02'3 3.0
2017-Mar-22 04:32N 50°51' E 007°01'2 2.3
2017-Mar-22 03:29N 50°54' E 006°60'4 4.3
2017-Mar-22 02:31N 50°58' E 006°60'13 3.9
2017-Mar-21 23:09N 51°10' E 006°50'2 2.7
2017-Mar-21 22:32N 51°10' E 006°48'4 3.6
2017-Mar-21 21:33N 51°12' E 006°44'3 2.7
2017-Mar-21 20:33N 51°15' E 006°46'8 3.6
2017-Mar-21 18:14N 51°22' E 006°40'3 4.7
2017-Mar-21 17:33N 51°24' E 006°45'5 4.6
2017-Mar-21 16:33N 51°28' E 006°42'4 3.5
2017-Mar-21 15:18N 51°32' E 006°40'3 3.2
2017-Mar-21 14:18N 51°34' E 006°36'4 5.3
2017-Mar-21 13:32N 51°38' E 006°36'5 4.9
2017-Mar-21 12:33N 51°40' E 006°29'5 4.8
2017-Mar-21 11:33N 51°44' E 006°25'5 4.8
2017-Mar-21 10:33N 51°47' E 006°19'6 5.6
2017-Mar-21 09:33N 51°50' E 006°11'6 6.1
2017-Mar-21 08:33N 51°52' E 006°02'5 4.8
2017-Mar-21 07:33N 51°52' E 005°54'5 5.1
2017-Mar-21 06:33N 51°53' E 005°46'7 6.3
2017-Mar-21 05:26N 51°54' E 005°35'8 5.7
2017-Mar-21 04:03N 51°50' E 005°24'15 5.8
2017-Mar-21 01:33N 51°49' E 005°00'7 7.2
2017-Mar-21 00:33N 51°48' E 004°49'8 7.8
2017-Mar-20 23:33N 51°43' E 004°39'9 8.0
2017-Mar-20 22:25N 51°41' E 004°25'32 3.9
2017-Mar-20 14:18N 51°18' E 003°50'7 8.2
2017-Mar-20 13:26N 51°11' E 003°48'6 7.1
2017-Mar-20 12:33N 51°05' E 003°45'0 0.1
2017-Mar-20 11:33N 51°05' E 003°45'0 0.0
2017-Mar-20 10:33N 51°05' E 003°45'0 0.0
2017-Mar-20 09:33N 51°05' E 003°45'0 0.0
2017-Mar-20 08:34N 51°05' E 003°45'0 0.0
2017-Mar-20 07:33N 51°05' E 003°45'0 0.0
2017-Mar-20 06:34N 51°05' E 003°45'0 0.1
2017-Mar-20 05:33N 51°05' E 003°45'0 0.0
2017-Mar-20 04:33N 51°05' E 003°45'0 0.0
2017-Mar-20 03:33N 51°05' E 003°45'0 0.0
2017-Mar-20 02:33N 51°05' E 003°45'0 0.0
2017-Mar-20 01:33N 51°05' E 003°45'0 0.0
2017-Mar-20 00:33N 51°05' E 003°45'0 0.0
2017-Mar-19 23:33N 51°05' E 003°45'0 0.0
2017-Mar-19 22:33N 51°05' E 003°45'0 0.0
2017-Mar-19 21:33N 51°05' E 003°45'0 0.0
2017-Mar-19 20:33N 51°05' E 003°45'0 0.0
2017-Mar-19 19:33N 51°05' E 003°45'0 0.0
2017-Mar-19 18:33N 51°05' E 003°45'0 0.0
2017-Mar-19 17:33N 51°05' E 003°45'0 0.0
2017-Mar-19 16:33N 51°05' E 003°45'0 0.0
2017-Mar-19 15:33N 51°05' E 003°45'0 0.0
2017-Mar-19 14:33N 51°05' E 003°45'0 0.0
2017-Mar-19 13:33N 51°05' E 003°45'0 0.0
2017-Mar-19 12:33N 51°05' E 003°45'0 0.0
2017-Mar-19 11:33N 51°05' E 003°45'0 0.0
2017-Mar-19 10:33N 51°05' E 003°45'0 0.0
2017-Mar-19 09:33N 51°05' E 003°45'0 0.0
2017-Mar-19 08:33N 51°05' E 003°45'0 0.0
2017-Mar-19 07:33N 51°05' E 003°45'0 0.0
2017-Mar-19 06:33N 51°05' E 003°45'0 0.0
2017-Mar-19 05:33N 51°05' E 003°45'0 0.0
2017-Mar-19 04:33N 51°05' E 003°45'0 0.0
2017-Mar-19 03:33N 51°05' E 003°45'0 0.0
2017-Mar-19 02:33N 51°05' E 003°45'0 0.0
2017-Mar-19 01:33N 51°05' E 003°45'0 0.0
2017-Mar-19 00:33N 51°05' E 003°45'0 0.0
2017-Mar-18 23:32N 51°05' E 003°45'0 0.0
2017-Mar-18 22:33N 51°05' E 003°45'0 0.0
2017-Mar-18 21:33N 51°05' E 003°45'0 0.0
2017-Mar-18 20:33N 51°05' E 003°45'0 0.0
2017-Mar-18 19:33N 51°05' E 003°45'0 0.0
2017-Mar-18 18:33N 51°05' E 003°45'0 0.0
2017-Mar-18 17:33N 51°05' E 003°45'0 0.0
2017-Mar-18 16:34N 51°05' E 003°45'0 0.0
2017-Mar-18 15:33N 51°05' E 003°45'0 0.0
2017-Mar-18 14:33N 51°05' E 003°45'2 2.2
2017-Mar-18 13:33N 51°07' E 003°46'39 3.9
2017-Mar-18 03:34N 51°39' E 004°20'0 0.0
2017-Mar-18 00:13N 51°39' E 004°20'3 3.1
2017-Mar-17 23:09N 51°41' E 004°25'2 4.1
2017-Mar-17 22:34N 51°42' E 004°28'8 7.9
2017-Mar-17 21:33N 51°44' E 004°41'8 7.8
2017-Mar-17 20:34N 51°48' E 004°51'29 4.8
2017-Mar-17 14:34N 51°57' E 005°35'2 2.4
2017-Mar-17 13:33N 51°57' E 005°39'0 0.0
2017-Mar-17 12:33N 51°57' E 005°39'0 0.0
2017-Mar-17 11:32N 51°57' E 005°39'0 0.0
2017-Mar-17 10:33N 51°57' E 005°39'0 0.0
2017-Mar-17 09:33N 51°57' E 005°39'0 0.0
2017-Mar-17 08:34N 51°57' E 005°39'0 0.0
2017-Mar-17 07:34N 51°57' E 005°39'0 0.0
2017-Mar-17 06:33N 51°57' E 005°39'0 0.0
2017-Mar-17 05:34N 51°57' E 005°39'0 0.0
2017-Mar-17 04:34N 51°57' E 005°39'0 0.0
2017-Mar-17 03:33N 51°57' E 005°39'0 0.0
2017-Mar-17 02:34N 51°57' E 005°39'0 0.0
2017-Mar-17 01:34N 51°57' E 005°39'0 0.0
2017-Mar-17 00:34N 51°57' E 005°39'0 0.0
2017-Mar-16 23:34N 51°57' E 005°39'0 0.0
2017-Mar-16 22:33N 51°57' E 005°39'0 0.0
2017-Mar-16 21:33N 51°57' E 005°39'0 0.0
2017-Mar-16 20:33N 51°57' E 005°39'0 0.0
2017-Mar-16 19:33N 51°57' E 005°39'0 0.0
2017-Mar-16 18:33N 51°57' E 005°39'0 0.0
2017-Mar-16 17:34N 51°57' E 005°39'0 0.1
2017-Mar-16 16:34N 51°57' E 005°40'4 3.7
2017-Mar-16 15:26N 51°58' E 005°46'2 1.9
2017-Mar-16 14:33N 51°58' E 005°49'6 6.0
2017-Mar-16 13:33N 51°56' E 005°58'8 8.3
2017-Mar-16 12:33N 51°51' E 006°08'9 8.5
2017-Mar-16 11:34N 51°46' E 006°20'8 7.3
2017-Mar-16 10:31N 51°41' E 006°28'7 6.9
2017-Mar-16 09:33N 51°36' E 006°36'7 6.8
2017-Mar-16 08:33N 51°31' E 006°43'7 6.8
2017-Mar-16 07:33N 51°24' E 006°45'11 1.9
2017-Mar-16 01:33N 51°13' E 006°42'0 0.0
2017-Mar-15 22:30N 51°13' E 006°42'0 0.0
2017-Mar-15 21:30N 51°13' E 006°42'0 0.0
2017-Mar-15 19:32N 51°13' E 006°42'1 0.7
2017-Mar-15 18:34N 51°14' E 006°43'20 6.6
2017-Mar-15 15:31N 50°56' E 006°58'6 6.4
2017-Mar-15 14:32N 50°50' E 006°59'10 9.1
2017-Mar-15 13:26N 50°42' E 007°10'  
Track history (hours):
 
Tides and Currents Weather Stations Pressure Air Temp Water Temp Dewpoint Dewpoint Depression Visibility Wind Speed Wind Dir Waves Ship Positions

Love Boat

Last reported at 2017-Mar-22 07:33 UTC. Time now 2017-Mar-24 12:08 UTC.
Position N 50°41' E 007°11'.

Length 110 m; draft 2 m.

Type: Ship. MMSI: 205386190.

Date/timePositionNaut miles runAvg speedWind from/ knotsBaromVisibWave heightAir tempDewpointWater temp
2017-Mar-22 07:33N 50°41' E 007°11'5 4.7
2017-Mar-22 06:33N 50°45' E 007°06'5 4.6
2017-Mar-22 05:32N 50°48' E 007°02'3 3.0
2017-Mar-22 04:32N 50°51' E 007°01'2 2.3
2017-Mar-22 03:29N 50°54' E 006°60'4 4.3
2017-Mar-22 02:31N 50°58' E 006°60'13 3.9
2017-Mar-21 23:09N 51°10' E 006°50'2 2.7
2017-Mar-21 22:32N 51°10' E 006°48'4 3.6
2017-Mar-21 21:33N 51°12' E 006°44'3 2.7
2017-Mar-21 20:33N 51°15' E 006°46'8 3.6
2017-Mar-21 18:14N 51°22' E 006°40'3 4.7
2017-Mar-21 17:33N 51°24' E 006°45'5 4.6
2017-Mar-21 16:33N 51°28' E 006°42'4 3.5
2017-Mar-21 15:18N 51°32' E 006°40'3 3.2
2017-Mar-21 14:18N 51°34' E 006°36'4 5.3
2017-Mar-21 13:32N 51°38' E 006°36'5 4.9
2017-Mar-21 12:33N 51°40' E 006°29'5 4.8
2017-Mar-21 11:33N 51°44' E 006°25'5 4.8
2017-Mar-21 10:33N 51°47' E 006°19'6 5.6
2017-Mar-21 09:33N 51°50' E 006°11'6 6.1
2017-Mar-21 08:33N 51°52' E 006°02'5 4.8
2017-Mar-21 07:33N 51°52' E 005°54'5 5.1
2017-Mar-21 06:33N 51°53' E 005°46'7 6.3
2017-Mar-21 05:26N 51°54' E 005°35'8 5.7
2017-Mar-21 04:03N 51°50' E 005°24'15 5.8
2017-Mar-21 01:33N 51°49' E 005°00'7 7.2
2017-Mar-21 00:33N 51°48' E 004°49'8 7.8
2017-Mar-20 23:33N 51°43' E 004°39'9 8.0
2017-Mar-20 22:25N 51°41' E 004°25'32 3.9
2017-Mar-20 14:18N 51°18' E 003°50'7 8.2
2017-Mar-20 13:26N 51°11' E 003°48'6 7.1
2017-Mar-20 12:33N 51°05' E 003°45'0 0.1
2017-Mar-20 11:33N 51°05' E 003°45'0 0.0
2017-Mar-20 10:33N 51°05' E 003°45'0 0.0
2017-Mar-20 09:33N 51°05' E 003°45'0 0.0
2017-Mar-20 08:34N 51°05' E 003°45'0 0.0
2017-Mar-20 07:33N 51°05' E 003°45'0 0.0
2017-Mar-20 06:34N 51°05' E 003°45'0 0.1
2017-Mar-20 05:33N 51°05' E 003°45'0 0.0
2017-Mar-20 04:33N 51°05' E 003°45'0 0.0
2017-Mar-20 03:33N 51°05' E 003°45'0 0.0
2017-Mar-20 02:33N 51°05' E 003°45'0 0.0
2017-Mar-20 01:33N 51°05' E 003°45'0 0.0
2017-Mar-20 00:33N 51°05' E 003°45'0 0.0
2017-Mar-19 23:33N 51°05' E 003°45'0 0.0
2017-Mar-19 22:33N 51°05' E 003°45'0 0.0
2017-Mar-19 21:33N 51°05' E 003°45'0 0.0
2017-Mar-19 20:33N 51°05' E 003°45'0 0.0
2017-Mar-19 19:33N 51°05' E 003°45'0 0.0
2017-Mar-19 18:33N 51°05' E 003°45'0 0.0
2017-Mar-19 17:33N 51°05' E 003°45'0 0.0
2017-Mar-19 16:33N 51°05' E 003°45'0 0.0
2017-Mar-19 15:33N 51°05' E 003°45'0 0.0
2017-Mar-19 14:33N 51°05' E 003°45'0 0.0
2017-Mar-19 13:33N 51°05' E 003°45'0 0.0
2017-Mar-19 12:33N 51°05' E 003°45'0 0.0
2017-Mar-19 11:33N 51°05' E 003°45'0 0.0
2017-Mar-19 10:33N 51°05' E 003°45'0 0.0
2017-Mar-19 09:33N 51°05' E 003°45'0 0.0
2017-Mar-19 08:33N 51°05' E 003°45'0 0.0
2017-Mar-19 07:33N 51°05' E 003°45'0 0.0
2017-Mar-19 06:33N 51°05' E 003°45'0 0.0
2017-Mar-19 05:33N 51°05' E 003°45'0 0.0
2017-Mar-19 04:33N 51°05' E 003°45'0 0.0
2017-Mar-19 03:33N 51°05' E 003°45'0 0.0
2017-Mar-19 02:33N 51°05' E 003°45'0 0.0
2017-Mar-19 01:33N 51°05' E 003°45'0 0.0
2017-Mar-19 00:33N 51°05' E 003°45'0 0.0
2017-Mar-18 23:32N 51°05' E 003°45'0 0.0
2017-Mar-18 22:33N 51°05' E 003°45'0 0.0
2017-Mar-18 21:33N 51°05' E 003°45'0 0.0
2017-Mar-18 20:33N 51°05' E 003°45'0 0.0
2017-Mar-18 19:33N 51°05' E 003°45'0 0.0
2017-Mar-18 18:33N 51°05' E 003°45'0 0.0
2017-Mar-18 17:33N 51°05' E 003°45'0 0.0
2017-Mar-18 16:34N 51°05' E 003°45'0 0.0
2017-Mar-18 15:33N 51°05' E 003°45'0 0.0
2017-Mar-18 14:33N 51°05' E 003°45'2 2.2
2017-Mar-18 13:33N 51°07' E 003°46'39 3.9
2017-Mar-18 03:34N 51°39' E 004°20'0 0.0
2017-Mar-18 00:13N 51°39' E 004°20'3 3.1
2017-Mar-17 23:09N 51°41' E 004°25'2 4.1
2017-Mar-17 22:34N 51°42' E 004°28'8 7.9
2017-Mar-17 21:33N 51°44' E 004°41'8 7.8
2017-Mar-17 20:34N 51°48' E 004°51'29 4.8
2017-Mar-17 14:34N 51°57' E 005°35'2 2.4
2017-Mar-17 13:33N 51°57' E 005°39'0 0.0
2017-Mar-17 12:33N 51°57' E 005°39'0 0.0
2017-Mar-17 11:32N 51°57' E 005°39'0 0.0
2017-Mar-17 10:33N 51°57' E 005°39'0 0.0
2017-Mar-17 09:33N 51°57' E 005°39'0 0.0
2017-Mar-17 08:34N 51°57' E 005°39'0 0.0
2017-Mar-17 07:34N 51°57' E 005°39'0 0.0
2017-Mar-17 06:33N 51°57' E 005°39'0 0.0
2017-Mar-17 05:34N 51°57' E 005°39'0 0.0
2017-Mar-17 04:34N 51°57' E 005°39'0 0.0
2017-Mar-17 03:33N 51°57' E 005°39'0 0.0
2017-Mar-17 02:34N 51°57' E 005°39'0 0.0
2017-Mar-17 01:34N 51°57' E 005°39'0 0.0
2017-Mar-17 00:34N 51°57' E 005°39'0 0.0
2017-Mar-16 23:34N 51°57' E 005°39'0 0.0
2017-Mar-16 22:33N 51°57' E 005°39'0 0.0
2017-Mar-16 21:33N 51°57' E 005°39'0 0.0
2017-Mar-16 20:33N 51°57' E 005°39'0 0.0
2017-Mar-16 19:33N 51°57' E 005°39'0 0.0
2017-Mar-16 18:33N 51°57' E 005°39'0 0.0
2017-Mar-16 17:34N 51°57' E 005°39'0 0.1
2017-Mar-16 16:34N 51°57' E 005°40'4 3.7
2017-Mar-16 15:26N 51°58' E 005°46'2 1.9
2017-Mar-16 14:33N 51°58' E 005°49'6 6.0
2017-Mar-16 13:33N 51°56' E 005°58'8 8.3
2017-Mar-16 12:33N 51°51' E 006°08'9 8.5
2017-Mar-16 11:34N 51°46' E 006°20'8 7.3
2017-Mar-16 10:31N 51°41' E 006°28'7 6.9
2017-Mar-16 09:33N 51°36' E 006°36'7 6.8
2017-Mar-16 08:33N 51°31' E 006°43'7 6.8
2017-Mar-16 07:33N 51°24' E 006°45'11 1.9
2017-Mar-16 01:33N 51°13' E 006°42'0 0.0
2017-Mar-15 22:30N 51°13' E 006°42'0 0.0
2017-Mar-15 21:30N 51°13' E 006°42'0 0.0
2017-Mar-15 19:32N 51°13' E 006°42'1 0.7
2017-Mar-15 18:34N 51°14' E 006°43'20 6.6
2017-Mar-15 15:31N 50°56' E 006°58'6 6.4
2017-Mar-15 14:32N 50°50' E 006°59'10 9.1
2017-Mar-15 13:26N 50°42' E 007°10'  

Dump ship's entire track history